createdAt,value
2018-12-15T00:00:16.012Z,72.80
2018-12-15T00:02:44.346Z,72.80
2018-12-15T00:05:12.911Z,72.50
2018-12-15T00:07:41.537Z,73.00
2018-12-15T00:10:10.069Z,73.50
2018-12-15T00:12:38.588Z,74.00
2018-12-15T00:15:08.679Z,75.00
2018-12-15T00:17:37.137Z,74.80
2018-12-15T00:20:06.270Z,74.50
2018-12-15T00:22:34.839Z,76.00
2018-12-15T00:25:03.186Z,75.90
2018-12-15T00:27:31.531Z,75.20
2018-12-15T00:29:59.922Z,75.00
2018-12-15T00:32:28.254Z,74.80
2018-12-15T00:34:56.655Z,74.80
2018-12-15T00:37:25.005Z,75.10
2018-12-15T00:39:53.366Z,74.30
2018-12-15T00:42:32.979Z,74.30
2018-12-15T00:45:01.529Z,74.00
2018-12-15T00:47:29.889Z,73.40
2018-12-15T00:49:58.465Z,73.00
2018-12-15T00:52:26.877Z,72.00
2018-12-15T00:54:55.223Z,73.10
2018-12-15T00:57:23.585Z,73.80
2018-12-15T00:59:52.105Z,74.00
2018-12-15T01:02:20.454Z,74.00
2018-12-15T01:04:48.811Z,73.80
2018-12-15T01:07:17.266Z,74.00
2018-12-15T01:09:45.610Z,74.40
2018-12-15T01:12:14.005Z,74.50
2018-12-15T01:14:42.390Z,74.20
2018-12-15T01:17:10.846Z,74.40
2018-12-15T01:19:39.249Z,74.60
2018-12-15T01:22:10.618Z,74.60
2018-12-15T01:24:39.032Z,75.10
2018-12-15T01:27:07.358Z,75.40
2018-12-15T01:29:35.958Z,74.10
2018-12-15T01:32:04.366Z,74.30
2018-12-15T01:34:32.716Z,74.70
2018-12-15T01:37:01.176Z,74.90
2018-12-15T01:39:29.558Z,74.60
2018-12-15T01:41:57.966Z,74.90
2018-12-15T01:44:26.392Z,75.10
2018-12-15T01:46:54.828Z,74.20
2018-12-15T01:49:23.208Z,74.60
2018-12-15T01:51:51.609Z,75.20
2018-12-15T01:54:20.174Z,75.00
2018-12-15T01:56:48.602Z,75.00
2018-12-15T01:59:16.954Z,75.70
2018-12-15T02:01:45.328Z,76.00
2018-12-15T02:04:13.736Z,75.30
2018-12-15T02:06:42.189Z,76.10
2018-12-15T02:09:11.118Z,75.70
2018-12-15T02:11:40.077Z,75.70
2018-12-15T02:14:08.479Z,76.60
2018-12-15T02:16:36.863Z,76.60
2018-12-15T02:19:05.199Z,76.30
2018-12-15T02:21:33.538Z,76.10
2018-12-15T02:24:01.959Z,76.30
2018-12-15T02:26:30.304Z,75.70
2018-12-15T02:28:58.646Z,75.60
2018-12-15T02:31:27.033Z,76.10
2018-12-15T02:33:55.371Z,76.40
2018-12-15T02:36:23.757Z,77.10
2018-12-15T02:38:52.120Z,76.70
2018-12-15T02:41:20.513Z,76.60
2018-12-15T02:43:48.871Z,76.30
2018-12-15T02:46:17.264Z,76.10
2018-12-15T02:48:45.629Z,75.80
2018-12-15T02:51:14.031Z,75.30
2018-12-15T02:53:42.495Z,75.40
2018-12-15T02:56:11.004Z,76.00
2018-12-15T02:58:39.341Z,76.20
2018-12-15T03:01:07.810Z,76.20
2018-12-15T03:03:36.137Z,76.70
2018-12-15T03:06:05.057Z,76.50
2018-12-15T03:08:33.451Z,76.50
2018-12-15T03:11:01.780Z,75.90
2018-12-15T03:13:30.122Z,76.30
2018-12-15T03:15:58.632Z,76.40
2018-12-15T03:18:26.982Z,76.40
2018-12-15T03:21:01.538Z,77.00
2018-12-15T03:23:29.898Z,77.20
2018-12-15T03:25:58.455Z,77.30
2018-12-15T03:28:26.856Z,78.30
2018-12-15T03:30:55.210Z,78.60
2018-12-15T03:33:23.649Z,79.20
2018-12-15T03:35:52.050Z,79.30
2018-12-15T03:38:20.510Z,79.30
2018-12-15T03:40:48.855Z,79.20
2018-12-15T03:43:17.299Z,79.10
2018-12-15T03:45:45.659Z,78.70
2018-12-15T03:48:13.998Z,77.90
2018-12-15T03:50:42.442Z,77.50
2018-12-15T03:53:10.788Z,77.90
2018-12-15T03:55:39.107Z,77.20
2018-12-15T03:58:07.681Z,77.50
2018-12-15T04:00:36.033Z,77.80
2018-12-15T04:03:04.463Z,77.80
2018-12-15T04:05:33.838Z,77.40
2018-12-15T04:08:02.184Z,77.40
2018-12-15T04:10:30.582Z,77.80
2018-12-15T04:12:59.017Z,77.80
2018-12-15T04:15:27.456Z,77.70
2018-12-15T04:18:03.439Z,77.50
2018-12-15T04:20:27.279Z,77.90
2018-12-15T04:22:55.654Z,78.00
2018-12-15T04:25:24.001Z,77.90
2018-12-15T04:27:52.325Z,77.30
2018-12-15T04:30:20.821Z,77.80
2018-12-15T04:32:49.233Z,78.10
2018-12-15T04:35:17.571Z,78.30
2018-12-15T04:37:45.905Z,77.90
2018-12-15T04:40:14.748Z,77.90
2018-12-15T04:42:43.810Z,78.10
2018-12-15T04:45:13.958Z,78.10
2018-12-15T04:47:42.541Z,77.90
2018-12-15T04:50:12.011Z,77.90
2018-12-15T04:52:40.333Z,78.00
2018-12-15T04:55:09.253Z,78.50
2018-12-15T04:57:37.596Z,78.00
2018-12-15T05:00:07.904Z,78.60
2018-12-15T05:02:36.268Z,78.10
2018-12-15T05:05:04.869Z,78.10
2018-12-15T05:07:33.242Z,78.10
2018-12-15T05:10:01.609Z,78.20
2018-12-15T05:12:30.001Z,78.50
2018-12-15T05:14:58.476Z,78.20
2018-12-15T05:17:26.807Z,78.50
2018-12-15T05:19:55.146Z,78.50
2018-12-15T05:22:23.546Z,78.70
2018-12-15T05:24:51.898Z,78.50
2018-12-15T05:27:20.611Z,78.40
2018-12-15T05:29:48.983Z,78.30
2018-12-15T05:32:17.353Z,78.50
2018-12-15T05:34:45.753Z,79.40
2018-12-15T05:37:14.104Z,79.50
2018-12-15T05:39:42.489Z,79.60
2018-12-15T05:42:10.873Z,79.70
2018-12-15T05:44:39.357Z,80.30
2018-12-15T05:47:14.251Z,81.60
2018-12-15T05:49:42.777Z,80.60
2018-12-15T05:52:11.135Z,80.90
2018-12-15T05:54:39.479Z,80.80
2018-12-15T05:57:07.926Z,80.50
2018-12-15T05:59:36.258Z,80.60
2018-12-15T06:02:06.663Z,81.40
2018-12-15T06:04:35.082Z,80.90
2018-12-15T06:07:03.421Z,81.00
2018-12-15T06:09:31.782Z,80.80
2018-12-15T06:12:00.170Z,79.60
2018-12-15T06:14:28.569Z,75.00
2018-12-15T06:16:56.924Z,75.20
2018-12-15T06:19:25.254Z,75.90
2018-12-15T06:21:53.646Z,77.40
2018-12-15T06:24:21.992Z,78.50
2018-12-15T06:26:50.428Z,79.10
2018-12-15T06:29:18.820Z,71.70
2018-12-15T06:31:47.183Z,74.30
2018-12-15T06:34:15.668Z,76.50
2018-12-15T06:36:44.147Z,77.40
2018-12-15T06:39:12.478Z,78.40
2018-12-15T06:41:40.901Z,78.70
2018-12-15T06:44:09.229Z,78.60
2018-12-15T06:46:38.150Z,79.00
2018-12-15T06:49:06.555Z,78.80
2018-12-15T06:51:34.910Z,78.70
2018-12-15T06:54:03.336Z,78.50
2018-12-15T06:56:31.815Z,78.70
2018-12-15T06:59:00.170Z,78.70
2018-12-15T07:01:28.575Z,78.60
2018-12-15T07:03:57.083Z,78.20
2018-12-15T07:06:25.493Z,78.30
2018-12-15T07:08:54.063Z,78.20
2018-12-15T07:11:22.431Z,78.10
2018-12-15T07:13:50.791Z,77.70
2018-12-15T07:16:19.181Z,78.00
2018-12-15T07:18:47.595Z,78.80
2018-12-15T07:21:16.033Z,78.90
2018-12-15T07:23:44.389Z,78.90
2018-12-15T07:26:12.759Z,78.90
2018-12-15T07:28:41.167Z,78.90
2018-12-15T07:31:10.007Z,78.80
2018-12-15T07:33:38.359Z,78.50
2018-12-15T07:36:06.835Z,78.10
2018-12-15T07:38:35.203Z,78.30
2018-12-15T07:41:03.619Z,78.20
2018-12-15T07:43:31.984Z,78.20
2018-12-15T07:46:00.957Z,78.40
2018-12-15T07:48:29.717Z,78.50
2018-12-15T07:50:58.123Z,78.20
2018-12-15T07:53:26.469Z,78.30
2018-12-15T07:55:54.861Z,78.20
2018-12-15T07:58:23.361Z,78.30
2018-12-15T08:00:51.783Z,78.20
2018-12-15T08:03:20.155Z,78.00
2018-12-15T08:05:48.538Z,77.70
2018-12-15T08:08:16.954Z,77.20
2018-12-15T08:10:50.901Z,77.40
2018-12-15T08:13:24.818Z,77.20
2018-12-15T08:15:53.163Z,77.40
2018-12-15T08:18:21.587Z,76.60
2018-12-15T08:20:49.937Z,76.80
2018-12-15T08:23:18.277Z,76.70
2018-12-15T08:25:46.678Z,77.10
2018-12-15T08:28:15.141Z,76.70
2018-12-15T08:30:43.471Z,76.80
2018-12-15T08:33:12.482Z,76.90
2018-12-15T08:35:40.826Z,77.20
2018-12-15T08:38:09.253Z,77.30
2018-12-15T08:40:37.692Z,77.20
2018-12-15T08:43:06.025Z,77.00
2018-12-15T08:45:34.445Z,76.70
2018-12-15T08:48:02.848Z,76.70
2018-12-15T08:50:31.207Z,76.60
2018-12-15T08:52:59.890Z,77.70
2018-12-15T08:55:28.227Z,76.50
2018-12-15T08:57:57.139Z,76.30
2018-12-15T09:00:25.575Z,76.60
2018-12-15T09:02:53.983Z,76.20
2018-12-15T09:05:22.343Z,75.80
2018-12-15T09:07:50.678Z,75.70
2018-12-15T09:10:19.208Z,75.40
2018-12-15T09:12:47.575Z,75.60
2018-12-15T09:15:15.917Z,75.50
2018-12-15T09:17:44.365Z,75.40
2018-12-15T09:20:12.873Z,74.90
2018-12-15T09:22:41.230Z,75.30
2018-12-15T09:25:09.675Z,75.10
2018-12-15T09:27:38.228Z,75.60
2018-12-15T09:30:07.629Z,75.70
2018-12-15T09:32:36.205Z,75.60
2018-12-15T09:35:04.798Z,75.30
2018-12-15T09:37:33.254Z,75.30
2018-12-15T09:40:01.682Z,75.40
2018-12-15T09:42:30.118Z,75.00
2018-12-15T09:44:58.492Z,74.20
2018-12-15T09:47:26.874Z,72.50
2018-12-15T09:49:56.165Z,72.40
2018-12-15T09:52:24.582Z,72.40
2018-12-15T09:54:53.003Z,71.50
2018-12-15T09:57:21.464Z,72.70
2018-12-15T09:59:49.807Z,71.40
2018-12-15T10:02:18.261Z,71.80
2018-12-15T10:04:46.696Z,72.20
2018-12-15T10:07:15.058Z,72.40
2018-12-15T10:09:43.523Z,72.50
2018-12-15T10:12:11.996Z,72.10
2018-12-15T10:14:40.796Z,72.30
2018-12-15T10:17:09.174Z,72.40
2018-12-15T10:19:37.576Z,72.40
2018-12-15T10:22:06.072Z,73.40
2018-12-15T10:24:34.440Z,73.10
2018-12-15T10:27:02.916Z,73.30
2018-12-15T10:30:40.576Z,73.40
2018-12-15T10:33:08.984Z,73.20
2018-12-15T10:35:37.322Z,73.80
2018-12-15T10:38:05.662Z,73.10
2018-12-15T10:40:34.062Z,72.70
2018-12-15T10:43:02.528Z,72.50
2018-12-15T10:45:30.860Z,72.50
2018-12-15T10:47:59.273Z,72.50
2018-12-15T10:50:30.602Z,72.50
2018-12-15T10:52:59.070Z,73.00
2018-12-15T10:55:27.480Z,72.50
2018-12-15T10:57:55.850Z,72.30
2018-12-15T11:00:26.261Z,72.50
2018-12-15T11:02:55.266Z,72.50
2018-12-15T11:05:24.079Z,71.80
2018-12-15T11:07:53.046Z,72.50
2018-12-15T11:10:21.524Z,73.40
2018-12-15T11:12:49.885Z,73.10
2018-12-15T11:15:18.292Z,72.50
2018-12-15T11:17:46.681Z,73.00
2018-12-15T11:20:15.046Z,72.70
2018-12-15T11:22:43.894Z,72.50
2018-12-15T11:25:12.252Z,72.50
2018-12-15T11:27:40.696Z,72.50
2018-12-15T11:30:09.175Z,72.60
2018-12-15T11:32:37.528Z,73.00
2018-12-15T11:35:06.448Z,72.60
2018-12-15T11:37:34.802Z,72.40
2018-12-15T11:40:03.525Z,72.60
2018-12-15T11:42:31.935Z,72.60
2018-12-15T11:45:00.400Z,72.60
2018-12-15T11:47:28.778Z,70.90
2018-12-15T11:49:57.671Z,72.20
2018-12-15T11:52:26.059Z,72.40
2018-12-15T11:54:54.409Z,72.60
2018-12-15T11:57:22.815Z,72.60
2018-12-15T11:59:51.313Z,71.80
2018-12-15T12:02:19.731Z,72.00
2018-12-15T12:04:48.097Z,72.40
2018-12-15T12:07:16.695Z,71.60
2018-12-15T12:09:45.663Z,72.60
2018-12-15T12:12:14.083Z,72.60
2018-12-15T12:14:42.488Z,72.80
2018-12-15T12:17:10.948Z,72.50
2018-12-15T12:19:39.345Z,72.50
2018-12-15T12:22:07.720Z,71.40
2018-12-15T12:24:36.148Z,71.20
2018-12-15T12:27:04.580Z,71.80
2018-12-15T12:29:33.917Z,72.30
2018-12-15T12:32:02.343Z,72.40
2018-12-15T12:34:30.744Z,72.50
2018-12-15T12:36:59.085Z,72.10
2018-12-15T12:39:27.601Z,71.70
2018-12-15T12:41:55.959Z,71.60
2018-12-15T12:44:24.374Z,70.70
2018-12-15T12:46:52.785Z,71.00
2018-12-15T12:49:21.163Z,71.40
2018-12-15T12:51:49.579Z,71.30
2018-12-15T12:54:17.951Z,70.80
2018-12-15T12:56:46.305Z,71.60
2018-12-15T12:59:14.711Z,71.00
2018-12-15T13:01:43.168Z,70.10
2018-12-15T13:04:18.133Z,69.80
2018-12-15T13:06:46.514Z,70.60
2018-12-15T13:09:19.797Z,70.60
2018-12-15T13:11:48.707Z,70.40
2018-12-15T13:14:17.296Z,69.90
2018-12-15T13:16:45.668Z,69.50
2018-12-15T13:19:14.617Z,69.70
2018-12-15T13:21:43.046Z,69.60
2018-12-15T13:24:11.494Z,69.10
2018-12-15T13:26:39.872Z,70.00
2018-12-15T13:29:08.303Z,70.60
2018-12-15T13:31:36.663Z,71.00
2018-12-15T13:34:05.167Z,70.10
2018-12-15T13:36:33.629Z,69.80
2018-12-15T13:39:02.009Z,69.80
2018-12-15T13:41:30.471Z,69.80
2018-12-15T13:44:00.163Z,69.30
2018-12-15T13:46:28.565Z,69.80
2018-12-15T13:48:56.908Z,68.70
2018-12-15T13:51:25.317Z,69.40
2018-12-15T13:53:54.299Z,69.60
2018-12-15T13:56:22.636Z,69.90
2018-12-15T13:58:50.987Z,70.10
2018-12-15T14:01:19.343Z,69.60
2018-12-15T14:03:47.737Z,69.80
2018-12-15T14:06:16.117Z,69.90
2018-12-15T14:08:44.493Z,70.40
2018-12-15T14:11:12.827Z,70.20
2018-12-15T14:13:41.178Z,69.90
2018-12-15T14:16:09.571Z,69.90
2018-12-15T14:18:37.984Z,69.10
2018-12-15T14:21:06.387Z,68.90
2018-12-15T14:23:34.748Z,68.50
2018-12-15T14:26:05.116Z,68.20
2018-12-15T14:28:33.826Z,68.40
2018-12-15T14:31:02.241Z,68.00
2018-12-15T14:33:30.637Z,69.10
2018-12-15T14:35:59.007Z,68.70
2018-12-15T14:38:27.422Z,68.10
2018-12-15T14:40:55.894Z,67.90
2018-12-15T14:43:24.254Z,67.80
2018-12-15T14:45:52.625Z,67.80
2018-12-15T14:48:21.088Z,67.80
2018-12-15T14:50:49.443Z,67.80
2018-12-15T14:53:17.815Z,67.20
2018-12-15T14:55:46.171Z,66.70
2018-12-15T14:58:14.523Z,66.40
2018-12-15T15:00:42.919Z,67.00
2018-12-15T15:03:11.921Z,67.10
2018-12-15T15:05:40.287Z,67.70
2018-12-15T15:08:08.721Z,67.70
2018-12-15T15:10:37.124Z,68.30
2018-12-15T15:13:05.571Z,67.60
2018-12-15T15:15:33.984Z,67.60
2018-12-15T15:18:02.354Z,68.40
2018-12-15T15:20:30.710Z,68.60
2018-12-15T15:22:59.103Z,68.60
2018-12-15T15:25:27.488Z,68.80
2018-12-15T15:27:55.919Z,69.30
2018-12-15T15:30:24.262Z,69.60
2018-12-15T15:32:52.632Z,68.90
2018-12-15T15:35:21.005Z,69.10
2018-12-15T15:37:49.389Z,69.10
2018-12-15T15:40:17.899Z,69.10
2018-12-15T15:42:46.242Z,68.90
2018-12-15T15:45:20.954Z,69.10
2018-12-15T15:47:49.330Z,68.00
2018-12-15T15:50:17.824Z,69.00
2018-12-15T15:52:46.185Z,67.70
2018-12-15T15:55:14.646Z,68.50
2018-12-15T15:57:43.088Z,67.80
2018-12-15T16:00:12.494Z,67.60
2018-12-15T16:02:41.030Z,67.70
2018-12-15T16:05:10.362Z,67.60
2018-12-15T16:07:38.826Z,67.70
2018-12-15T16:10:10.335Z,68.20
2018-12-15T16:12:38.745Z,68.40
2018-12-15T16:15:08.856Z,68.10
2018-12-15T16:17:37.206Z,68.10
2018-12-15T16:20:07.994Z,67.50
2018-12-15T16:22:36.459Z,67.50
2018-12-15T16:25:05.388Z,67.40
2018-12-15T16:27:33.751Z,67.10
2018-12-15T16:30:02.142Z,66.90
2018-12-15T16:32:30.570Z,67.70
2018-12-15T16:34:58.940Z,67.60
2018-12-15T16:37:27.359Z,67.40
2018-12-15T16:39:55.732Z,67.40
2018-12-15T16:42:24.119Z,67.00
2018-12-15T16:44:52.490Z,67.30
2018-12-15T16:47:20.888Z,67.20
2018-12-15T16:49:49.276Z,67.20
2018-12-15T16:52:17.935Z,67.40
2018-12-15T16:54:46.649Z,67.50
2018-12-15T16:57:15.032Z,66.90
2018-12-15T16:59:43.557Z,66.50
2018-12-15T17:02:12.046Z,66.80
2018-12-15T17:04:40.611Z,66.20
2018-12-15T17:07:09.732Z,66.60
2018-12-15T17:09:38.121Z,66.50
2018-12-15T17:12:06.461Z,67.30
2018-12-15T17:14:34.847Z,68.10
2018-12-15T17:17:03.352Z,67.50
2018-12-15T17:19:31.718Z,67.90
2018-12-15T17:22:00.095Z,67.30
2018-12-15T17:24:28.615Z,67.20
2018-12-15T17:26:57.009Z,66.80
2018-12-15T17:29:25.997Z,67.50
2018-12-15T17:31:54.322Z,68.40
2018-12-15T17:34:29.422Z,68.80
2018-12-15T17:36:57.769Z,68.90
2018-12-15T17:39:26.467Z,69.00
2018-12-15T17:41:54.834Z,69.30
2018-12-15T17:44:23.223Z,69.30
2018-12-15T17:46:51.580Z,68.90
2018-12-15T17:49:19.971Z,68.90
2018-12-15T17:51:48.344Z,68.90
2018-12-15T17:54:16.821Z,68.70
2018-12-15T17:56:45.183Z,67.70
2018-12-15T17:59:13.587Z,68.20
2018-12-15T18:01:41.949Z,67.20
2018-12-15T18:04:13.689Z,67.10
2018-12-15T18:06:42.448Z,67.30
2018-12-15T18:09:10.904Z,67.20
2018-12-15T18:11:39.829Z,66.90
2018-12-15T18:14:08.461Z,67.30
2018-12-15T18:16:36.953Z,67.30
2018-12-15T18:19:05.617Z,67.50
2018-12-15T18:21:34.885Z,67.10
2018-12-15T18:24:04.043Z,67.30
2018-12-15T18:26:32.865Z,67.60
2018-12-15T18:29:01.353Z,67.10
2018-12-15T18:31:29.771Z,67.40
2018-12-15T18:33:58.134Z,67.40
2018-12-15T18:36:26.537Z,67.30
2018-12-15T18:38:54.899Z,67.30
2018-12-15T18:41:23.426Z,68.60
2018-12-15T18:43:51.870Z,67.70
2018-12-15T18:46:20.217Z,68.10
2018-12-15T18:48:48.677Z,67.80
2018-12-15T18:51:17.090Z,67.90
2018-12-15T18:53:45.485Z,68.60
2018-12-15T18:56:14.443Z,69.10
2018-12-15T18:58:42.945Z,67.40
2018-12-15T19:01:11.309Z,67.70
2018-12-15T19:03:39.673Z,67.70
2018-12-15T19:06:08.073Z,67.90
2018-12-15T19:08:36.447Z,68.10
2018-12-15T19:11:04.955Z,67.90
2018-12-15T19:13:33.386Z,67.50
2018-12-15T19:16:01.825Z,67.30
2018-12-15T19:18:30.647Z,67.80
2018-12-15T19:20:59.047Z,67.20
2018-12-15T19:40:59.121Z,68.10
2018-12-15T19:43:27.698Z,67.90
2018-12-15T19:45:56.050Z,67.50
2018-12-15T19:48:24.556Z,67.30
2018-12-15T19:50:59.669Z,67.50
2018-12-15T19:53:28.091Z,67.50
2018-12-15T19:55:56.519Z,67.70
2018-12-15T19:58:24.862Z,67.70
2018-12-15T20:00:53.302Z,68.30
2018-12-15T20:03:22.632Z,67.90
2018-12-15T20:05:50.983Z,66.60
2018-12-15T20:08:19.405Z,67.60
2018-12-15T20:10:47.762Z,67.80
2018-12-15T20:13:16.144Z,67.10
2018-12-15T20:15:44.699Z,67.70
2018-12-15T20:18:13.039Z,68.00
2018-12-15T20:20:41.422Z,68.00
2018-12-15T20:23:09.838Z,68.30
2018-12-15T20:25:38.194Z,68.30
2018-12-15T20:28:06.659Z,68.60
2018-12-15T20:30:35.143Z,68.40
2018-12-15T20:33:03.527Z,68.10
2018-12-15T20:35:31.958Z,67.90
2018-12-15T20:38:00.395Z,68.40
2018-12-15T20:40:29.320Z,68.00
2018-12-15T20:42:57.716Z,68.20
2018-12-15T20:45:26.131Z,68.10
2018-12-15T20:47:54.478Z,68.10
2018-12-15T20:50:22.939Z,68.20
2018-12-15T20:52:51.359Z,68.30
2018-12-15T20:55:19.744Z,68.20
2018-12-15T20:57:48.118Z,68.40
2018-12-15T21:00:17.006Z,68.60
2018-12-15T21:02:45.376Z,68.90
2018-12-15T21:05:14.349Z,67.70
2018-12-15T21:07:42.754Z,67.90
2018-12-15T21:10:11.246Z,67.60
2018-12-15T21:12:39.655Z,68.00
2018-12-15T21:15:13.425Z,67.80
2018-12-15T21:17:42.012Z,67.10
2018-12-15T21:20:10.863Z,67.80
2018-12-15T21:22:39.515Z,68.40
2018-12-15T21:25:08.043Z,68.10
2018-12-15T21:27:36.411Z,68.20
2018-12-15T21:30:05.748Z,68.50
2018-12-15T21:32:34.164Z,68.50
2018-12-15T21:35:02.541Z,68.50
2018-12-15T21:37:30.955Z,68.50
2018-12-15T21:39:59.300Z,69.00
2018-12-15T21:42:27.658Z,68.90
2018-12-15T21:44:56.088Z,69.70
2018-12-15T21:47:24.459Z,69.50
2018-12-15T21:49:52.922Z,69.20
2018-12-15T21:52:21.344Z,69.40
2018-12-15T21:54:50.128Z,69.30
2018-12-15T21:57:18.557Z,69.50
2018-12-15T21:59:47.069Z,69.30
2018-12-15T22:02:15.422Z,69.30
2018-12-15T22:04:43.840Z,69.00
2018-12-15T22:07:12.224Z,69.20
2018-12-15T22:09:41.620Z,68.70
2018-12-15T22:12:10.162Z,69.00
2018-12-15T22:14:38.592Z,69.20
2018-12-15T22:17:07.006Z,69.20
2018-12-15T22:19:35.373Z,69.00
2018-12-15T22:22:03.749Z,69.00
2018-12-15T22:24:32.166Z,69.10
2018-12-15T22:27:00.702Z,68.90
2018-12-15T22:29:29.061Z,69.00
2018-12-15T22:31:57.462Z,68.90
2018-12-15T22:34:25.893Z,68.80
2018-12-15T22:36:54.471Z,69.00
2018-12-15T22:39:22.895Z,69.00
2018-12-15T22:41:51.301Z,69.10
2018-12-15T22:44:19.727Z,68.50
2018-12-15T22:46:48.137Z,69.20
2018-12-15T22:49:16.509Z,69.20
2018-12-15T22:51:46.319Z,69.30
2018-12-15T22:54:14.937Z,69.30
2018-12-15T22:56:43.277Z,69.30
2018-12-15T22:59:11.686Z,69.30
2018-12-15T23:01:46.390Z,68.80
2018-12-15T23:04:15.645Z,69.90
2018-12-15T23:06:44.589Z,69.60
2018-12-15T23:09:13.104Z,69.80
2018-12-15T23:11:42.089Z,69.70
2018-12-15T23:14:10.438Z,69.70
2018-12-15T23:16:38.788Z,69.60
2018-12-15T23:19:07.189Z,69.90
2018-12-15T23:21:35.553Z,69.70
2018-12-15T23:24:04.045Z,69.70
2018-12-15T23:26:32.501Z,69.70
2018-12-15T23:29:00.968Z,70.00
2018-12-15T23:31:29.333Z,69.80
2018-12-15T23:33:57.754Z,69.60
2018-12-15T23:36:26.096Z,69.60
2018-12-15T23:38:54.454Z,69.80
2018-12-15T23:41:23.015Z,69.80
2018-12-15T23:43:51.469Z,69.90
2018-12-15T23:46:19.992Z,70.00
2018-12-15T23:48:48.553Z,70.20
2018-12-15T23:51:17.297Z,69.90
2018-12-15T23:53:45.690Z,69.70
2018-12-15T23:56:14.698Z,69.70
2018-12-15T23:58:43.050Z,69.90
